createdAt,value
2019-03-11T00:01:40.292Z,4.70
2019-03-11T00:04:13.426Z,3.37
2019-03-11T00:06:46.572Z,3.87
2019-03-11T00:09:18.951Z,4.93
2019-03-11T00:11:50.879Z,4.13
2019-03-11T00:14:23.074Z,4.67
2019-03-11T00:16:55.467Z,7.10
2019-03-11T00:19:28.544Z,5.20
2019-03-11T00:22:00.802Z,5.43
2019-03-11T00:24:33.789Z,6.87
2019-03-11T00:27:06.068Z,7.60
2019-03-11T00:29:38.439Z,6.03
2019-03-11T00:32:10.701Z,5.13
2019-03-11T00:34:43.080Z,6.03
2019-03-11T00:37:16.889Z,8.60
2019-03-11T00:39:49.258Z,8.43
2019-03-11T00:42:22.752Z,9.10
2019-03-11T00:44:55.126Z,10.47
2019-03-11T00:47:27.492Z,8.90
2019-03-11T00:49:59.859Z,9.57
2019-03-11T00:52:32.182Z,6.87
2019-03-11T00:55:05.638Z,6.10
2019-03-11T00:57:37.908Z,8.37
2019-03-11T01:00:34.344Z,7.77
2019-03-11T01:03:07.120Z,10.13
2019-03-11T01:05:39.556Z,10.47
2019-03-11T01:08:12.524Z,7.80
2019-03-11T01:10:44.470Z,8.63
2019-03-11T01:13:16.821Z,7.17
2019-03-11T01:15:50.416Z,11.37
2019-03-11T01:18:22.795Z,11.83
2019-03-11T01:20:55.156Z,10.30
2019-03-11T01:23:27.437Z,10.70
2019-03-11T01:25:59.609Z,7.63
2019-03-11T01:28:31.966Z,12.40
2019-03-11T01:31:04.345Z,10.10
2019-03-11T01:33:37.836Z,7.97
2019-03-11T01:36:10.216Z,12.33
2019-03-11T01:38:42.644Z,8.57
2019-03-11T01:41:14.950Z,11.53
2019-03-11T01:43:47.331Z,13.10
2019-03-11T01:46:19.701Z,6.33
2019-03-11T01:48:52.062Z,8.47
2019-03-11T01:51:24.434Z,6.23
2019-03-11T01:53:56.712Z,9.93
2019-03-11T01:56:29.082Z,7.97
2019-03-11T01:59:01.452Z,5.13
2019-03-11T02:01:33.827Z,13.27
2019-03-11T02:04:06.200Z,9.87
2019-03-11T02:06:38.570Z,6.00
2019-03-11T02:09:13.291Z,7.83
2019-03-11T02:11:45.667Z,11.00
2019-03-11T02:14:18.045Z,7.60
2019-03-11T02:16:50.223Z,5.30
2019-03-11T02:19:23.613Z,9.13
2019-03-11T02:21:55.971Z,6.23
2019-03-11T02:24:28.252Z,7.07
2019-03-11T02:27:00.619Z,6.73
2019-03-11T02:29:34.007Z,8.63
2019-03-11T02:32:07.582Z,9.57
2019-03-11T02:34:39.492Z,7.73
2019-03-11T02:37:11.846Z,13.77
2019-03-11T02:39:44.222Z,10.53
2019-03-11T02:42:16.596Z,8.47
2019-03-11T02:44:48.524Z,6.67
2019-03-11T02:47:20.923Z,9.00
2019-03-11T02:49:53.242Z,4.80
2019-03-11T02:52:25.570Z,8.53
2019-03-11T02:54:57.895Z,7.10
2019-03-11T02:57:31.601Z,7.07
2019-03-11T03:00:19.948Z,7.83
2019-03-11T03:03:04.288Z,9.27
2019-03-11T03:05:38.194Z,6.40
2019-03-11T03:08:10.421Z,11.10
2019-03-11T03:10:42.331Z,9.87
2019-03-11T03:13:14.799Z,13.03
2019-03-11T03:15:46.717Z,11.40
2019-03-11T03:18:19.139Z,13.73
2019-03-11T03:20:51.062Z,11.00
2019-03-11T03:23:23.469Z,13.27
2019-03-11T03:25:55.832Z,9.93
2019-03-11T03:28:28.204Z,11.97
2019-03-11T03:31:00.579Z,7.53
2019-03-11T03:33:32.951Z,7.90
2019-03-11T03:36:04.864Z,6.23
2019-03-11T03:38:37.283Z,7.47
2019-03-11T03:41:10.585Z,8.17
2019-03-11T03:43:42.957Z,8.37
2019-03-11T03:46:19.183Z,7.83
2019-03-11T03:48:49.539Z,7.47
2019-03-11T03:51:22.124Z,9.57
2019-03-11T03:53:54.320Z,11.77
2019-03-11T03:56:26.659Z,7.77
2019-03-11T03:58:59.650Z,6.53
2019-03-11T04:01:31.761Z,7.40
2019-03-11T04:04:04.173Z,11.07
2019-03-11T04:06:36.560Z,10.90
2019-03-11T04:09:08.930Z,8.73
2019-03-11T04:11:41.193Z,9.40
2019-03-11T04:14:13.564Z,9.83
2019-03-11T04:16:45.831Z,12.03
2019-03-11T04:19:18.211Z,11.43
2019-03-11T04:21:50.131Z,12.37
2019-03-11T04:24:22.552Z,11.27
2019-03-11T04:26:55.529Z,17.27
2019-03-11T04:29:27.498Z,9.43
2019-03-11T04:31:59.864Z,9.20
2019-03-11T04:34:32.230Z,13.60
2019-03-11T04:37:04.613Z,8.03
2019-03-11T04:39:36.974Z,11.07
2019-03-11T04:42:09.347Z,13.40
2019-03-11T04:44:41.728Z,10.73
2019-03-11T04:47:13.878Z,17.57
2019-03-11T04:49:46.257Z,13.70
2019-03-11T04:52:18.639Z,14.73
2019-03-11T04:54:51.007Z,13.97
2019-03-11T04:57:23.600Z,11.73
2019-03-11T04:59:56.462Z,7.43
2019-03-11T05:02:28.834Z,20.87
2019-03-11T05:05:01.205Z,13.87
2019-03-11T05:07:33.474Z,13.87
2019-03-11T05:10:10.152Z,11.20
2019-03-11T05:12:42.519Z,7.83
2019-03-11T05:15:15.546Z,13.20
2019-03-11T05:17:48.729Z,16.63
2019-03-11T05:20:22.296Z,11.90
2019-03-11T05:22:55.042Z,9.50
2019-03-11T05:25:27.600Z,7.07
2019-03-11T05:27:59.931Z,10.77
2019-03-11T05:30:32.300Z,7.60
2019-03-11T05:33:04.675Z,17.20
2019-03-11T05:35:37.045Z,9.63
2019-03-11T05:38:09.419Z,9.57
2019-03-11T05:40:41.794Z,10.37
2019-03-11T05:43:14.161Z,12.50
2019-03-11T05:45:46.156Z,8.43
2019-03-11T05:48:18.493Z,7.00
2019-03-11T05:50:50.872Z,11.03
2019-03-11T05:53:23.246Z,7.87
2019-03-11T05:55:55.292Z,6.80
2019-03-11T05:58:27.667Z,7.10
2019-03-11T06:01:01.077Z,11.67
2019-03-11T06:03:33.441Z,10.43
2019-03-11T06:06:05.818Z,8.33
2019-03-11T06:08:38.192Z,8.53
2019-03-11T06:11:10.556Z,9.73
2019-03-11T06:13:42.827Z,12.13
2019-03-11T06:16:15.199Z,9.43
2019-03-11T06:18:48.696Z,6.17
2019-03-11T06:21:32.336Z,10.80
2019-03-11T06:24:04.864Z,9.43
2019-03-11T06:26:37.278Z,8.43
2019-03-11T06:29:09.560Z,13.37
2019-03-11T06:31:41.931Z,6.43
2019-03-11T06:34:14.293Z,12.57
2019-03-11T06:36:46.273Z,8.73
2019-03-11T06:39:18.660Z,6.93
2019-03-11T06:41:51.727Z,12.77
2019-03-11T06:44:24.199Z,9.20
2019-03-11T06:46:56.771Z,9.53
2019-03-11T06:49:29.206Z,16.87
2019-03-11T06:52:03.521Z,10.17
2019-03-11T06:54:35.171Z,6.97
2019-03-11T06:57:09.274Z,6.93
2019-03-11T06:59:41.695Z,9.87
2019-03-11T07:02:14.392Z,10.67
2019-03-11T07:04:46.328Z,14.33
2019-03-11T07:07:18.720Z,10.67
2019-03-11T07:09:50.979Z,8.87
2019-03-11T07:12:23.356Z,13.47
2019-03-11T07:14:55.618Z,9.30
2019-03-11T07:17:28.005Z,22.67
2019-03-11T07:20:00.361Z,14.10
2019-03-11T07:22:32.740Z,10.67
2019-03-11T07:25:05.457Z,7.43
2019-03-11T07:27:37.895Z,8.90
2019-03-11T07:30:19.407Z,9.43
2019-03-11T07:32:51.373Z,5.40
2019-03-11T07:35:23.636Z,11.70
2019-03-11T07:37:55.612Z,8.47
2019-03-11T07:40:30.096Z,7.93
2019-03-11T07:43:01.950Z,6.33
2019-03-11T07:45:34.336Z,8.50
2019-03-11T07:48:06.642Z,11.00
2019-03-11T07:50:38.976Z,9.00
2019-03-11T07:53:11.355Z,8.77
2019-03-11T07:55:43.713Z,8.03
2019-03-11T07:58:16.087Z,4.00
2019-03-11T08:00:53.818Z,5.90
2019-03-11T08:03:22.569Z,11.47
2019-03-11T08:05:54.941Z,10.83
2019-03-11T08:08:27.320Z,9.20
2019-03-11T08:10:59.685Z,5.03
2019-03-11T08:13:32.070Z,6.77
2019-03-11T08:16:04.434Z,6.83
2019-03-11T08:18:36.504Z,3.93
2019-03-11T08:21:10.341Z,5.87
2019-03-11T08:23:42.782Z,4.37
2019-03-11T08:26:15.667Z,4.20
2019-03-11T08:28:48.756Z,3.83
2019-03-11T08:31:21.141Z,3.67
2019-03-11T08:33:53.492Z,4.03
2019-03-11T08:36:25.935Z,2.80
2019-03-11T08:38:57.915Z,5.80
2019-03-11T08:41:30.198Z,12.10
2019-03-11T08:44:02.578Z,4.73
2019-03-11T08:46:34.944Z,5.83
2019-03-11T08:49:06.929Z,5.30
2019-03-11T08:51:39.270Z,6.83
2019-03-11T08:54:11.644Z,5.70
2019-03-11T08:56:44.087Z,3.70
2019-03-11T08:59:16.912Z,6.00
2019-03-11T09:01:49.282Z,7.23
2019-03-11T09:04:22.575Z,7.77
2019-03-11T09:06:55.872Z,8.33
2019-03-11T09:09:28.541Z,8.67
2019-03-11T09:12:00.464Z,9.30
2019-03-11T09:14:32.876Z,7.83
2019-03-11T09:17:04.794Z,5.50
2019-03-11T09:19:37.247Z,8.87
2019-03-11T09:22:09.490Z,12.77
2019-03-11T09:24:41.857Z,10.17
2019-03-11T09:27:14.230Z,8.27
2019-03-11T09:29:46.594Z,7.13
2019-03-11T09:32:19.523Z,9.60
2019-03-11T09:34:51.952Z,10.97
2019-03-11T09:37:24.340Z,11.67
2019-03-11T09:39:56.702Z,11.57
2019-03-11T09:42:30.095Z,11.00
2019-03-11T09:45:02.470Z,11.63
2019-03-11T09:47:36.070Z,10.87
2019-03-11T09:50:12.331Z,11.23
2019-03-11T09:52:44.711Z,10.27
2019-03-11T09:55:28.032Z,12.07
2019-03-11T09:58:00.606Z,8.57
2019-03-11T10:00:37.289Z,10.33
2019-03-11T10:03:09.649Z,10.53
2019-03-11T10:05:43.464Z,8.37
2019-03-11T10:08:15.855Z,11.30
2019-03-11T10:10:48.209Z,9.37
2019-03-11T10:13:20.579Z,8.57
2019-03-11T10:15:52.953Z,8.00
2019-03-11T10:18:25.328Z,11.30
2019-03-11T10:20:57.697Z,15.17
2019-03-11T10:23:32.431Z,6.63
2019-03-11T10:26:04.070Z,11.53
2019-03-11T10:28:36.450Z,10.83
2019-03-11T10:31:08.816Z,10.67
2019-03-11T10:33:41.244Z,8.30
2019-03-11T10:36:13.556Z,8.20
2019-03-11T10:38:45.836Z,11.07
2019-03-11T10:41:18.071Z,10.20
2019-03-11T10:43:50.367Z,10.50
2019-03-11T10:46:22.739Z,10.20
2019-03-11T10:48:55.012Z,13.50
2019-03-11T10:51:27.387Z,13.23
2019-03-11T10:53:59.761Z,12.13
2019-03-11T10:56:31.863Z,10.83
2019-03-11T10:59:03.797Z,14.00
2019-03-11T11:01:36.157Z,10.87
2019-03-11T11:04:08.516Z,14.63
2019-03-11T11:06:41.174Z,11.23
2019-03-11T11:09:13.584Z,16.00
2019-03-11T11:11:45.960Z,11.87
2019-03-11T11:14:19.969Z,9.50
2019-03-11T11:16:52.334Z,9.47
2019-03-11T11:19:24.704Z,12.83
2019-03-11T11:21:57.074Z,14.63
2019-03-11T11:24:29.018Z,18.87
2019-03-11T11:27:02.084Z,15.07
2019-03-11T11:29:34.399Z,11.87
2019-03-11T11:32:06.766Z,11.80
2019-03-11T11:34:39.548Z,10.37
2019-03-11T11:37:11.927Z,12.80
2019-03-11T11:39:44.293Z,9.83
2019-03-11T11:42:16.663Z,9.80
2019-03-11T11:44:48.939Z,8.53
2019-03-11T11:47:21.314Z,10.83
2019-03-11T11:49:53.328Z,11.33
2019-03-11T11:52:25.741Z,6.77
2019-03-11T11:54:58.011Z,10.17
2019-03-11T11:57:35.410Z,8.80
2019-03-11T12:00:41.681Z,12.63
2019-03-11T12:03:14.046Z,11.00
2019-03-11T12:05:46.410Z,12.77
2019-03-11T12:08:19.705Z,9.50
2019-03-11T12:10:51.980Z,10.03
2019-03-11T12:13:24.454Z,7.67
2019-03-11T12:15:56.832Z,7.07
2019-03-11T12:18:30.729Z,8.57
2019-03-11T12:21:03.114Z,12.37
2019-03-11T12:23:45.780Z,10.80
2019-03-11T12:26:09.491Z,14.17
2019-03-11T12:28:41.861Z,8.83
2019-03-11T12:31:14.123Z,6.23
2019-03-11T12:33:46.556Z,7.47
2019-03-11T12:36:18.478Z,8.20
2019-03-11T12:38:50.932Z,7.50
2019-03-11T12:41:23.198Z,7.30
2019-03-11T12:43:55.193Z,6.53
2019-03-11T12:46:27.543Z,9.57
2019-03-11T12:48:59.914Z,9.67
2019-03-11T12:51:32.176Z,6.17
2019-03-11T12:54:04.551Z,10.23
2019-03-11T12:56:36.922Z,9.17
2019-03-11T12:59:10.075Z,9.03
2019-03-11T13:01:42.389Z,8.73
2019-03-11T13:04:14.375Z,9.73
2019-03-11T13:06:46.722Z,8.70
2019-03-11T13:09:19.401Z,9.90
2019-03-11T13:11:51.767Z,12.57
2019-03-11T13:14:24.134Z,11.43
2019-03-11T13:16:56.516Z,17.17
2019-03-11T13:19:29.194Z,8.97
2019-03-11T13:22:01.718Z,12.97
2019-03-11T13:24:33.662Z,18.30
2019-03-11T13:27:07.137Z,10.10
2019-03-11T13:29:39.502Z,10.17
2019-03-11T13:32:12.803Z,14.37
2019-03-11T13:34:45.187Z,13.07
2019-03-11T13:37:17.545Z,12.50
2019-03-11T13:39:49.922Z,13.57
2019-03-11T13:42:21.838Z,16.70
2019-03-11T13:44:54.251Z,10.20
2019-03-11T13:47:26.678Z,11.00
2019-03-11T13:50:01.538Z,8.57
2019-03-11T13:52:34.327Z,7.43
2019-03-11T13:55:10.835Z,7.17
2019-03-11T13:57:44.039Z,8.33
2019-03-11T14:00:23.526Z,8.63
2019-03-11T14:02:55.900Z,10.03
2019-03-11T14:05:28.269Z,7.53
2019-03-11T14:08:00.199Z,7.73
2019-03-11T14:10:32.604Z,8.53
2019-03-11T14:13:04.984Z,7.77
2019-03-11T14:15:36.959Z,9.60
2019-03-11T14:18:09.306Z,8.50
2019-03-11T14:20:41.693Z,10.03
2019-03-11T14:23:13.946Z,8.93
2019-03-11T14:25:46.327Z,5.60
2019-03-11T14:28:18.704Z,2.77
2019-03-11T14:30:51.164Z,1.63
2019-03-11T14:33:23.553Z,5.20
2019-03-11T14:35:57.350Z,1.90
2019-03-11T14:38:30.641Z,5.50
2019-03-11T14:41:03.014Z,3.13
2019-03-11T14:43:35.409Z,3.17
2019-03-11T14:46:07.759Z,3.80
2019-03-11T14:48:40.138Z,4.23
2019-03-11T14:51:12.122Z,4.63
2019-03-11T14:53:44.475Z,3.40
2019-03-11T14:56:17.967Z,5.50
2019-03-11T14:58:50.334Z,4.17
2019-03-11T15:01:22.707Z,5.67
2019-03-11T15:03:55.085Z,6.97
2019-03-11T15:06:28.255Z,9.47
2019-03-11T15:09:00.534Z,3.83
2019-03-11T15:11:34.445Z,6.87
2019-03-11T15:14:06.374Z,5.60
2019-03-11T15:16:38.791Z,8.03
2019-03-11T15:19:11.050Z,4.83
2019-03-11T15:21:43.421Z,6.20
2019-03-11T15:24:15.698Z,5.63
2019-03-11T15:26:48.128Z,6.67
2019-03-11T15:29:20.334Z,7.23
2019-03-11T15:31:52.711Z,5.93
2019-03-11T15:34:25.086Z,8.40
2019-03-11T15:36:57.451Z,5.37
2019-03-11T15:39:29.821Z,6.37
2019-03-11T15:42:02.186Z,4.60
2019-03-11T15:44:34.578Z,6.50
2019-03-11T15:47:07.151Z,4.17
2019-03-11T15:49:39.528Z,5.03
2019-03-11T15:52:11.891Z,5.10
2019-03-11T15:54:44.260Z,4.70
2019-03-11T15:57:17.660Z,4.17
2019-03-11T15:59:51.981Z,8.20
2019-03-11T16:02:24.352Z,12.60
2019-03-11T16:04:56.729Z,13.80
2019-03-11T16:07:29.097Z,6.37
2019-03-11T16:10:03.319Z,7.50
2019-03-11T16:12:35.688Z,13.77
2019-03-11T16:15:09.912Z,6.03
2019-03-11T16:17:42.671Z,8.43
2019-03-11T16:20:21.399Z,7.23
2019-03-11T16:22:54.903Z,9.57
2019-03-11T16:25:27.314Z,7.97
2019-03-11T16:27:59.775Z,7.93
2019-03-11T16:30:32.115Z,10.63
2019-03-11T16:33:04.480Z,7.70
2019-03-11T16:35:36.862Z,8.90
2019-03-11T16:38:09.235Z,11.10
2019-03-11T16:40:41.600Z,6.23
2019-03-11T16:43:13.973Z,7.63
2019-03-11T16:45:46.339Z,3.97
2019-03-11T16:48:18.722Z,10.70
2019-03-11T16:50:51.092Z,9.57
2019-03-11T16:53:23.459Z,13.83
2019-03-11T16:55:55.414Z,10.57
2019-03-11T16:58:27.793Z,7.87
2019-03-11T17:01:01.713Z,4.87
2019-03-11T17:03:33.682Z,7.03
2019-03-11T17:06:06.034Z,3.17
2019-03-11T17:08:38.414Z,6.33
2019-03-11T17:11:10.582Z,6.10
2019-03-11T17:13:42.943Z,4.30
2019-03-11T17:16:15.325Z,6.40
2019-03-11T17:18:47.687Z,4.70
2019-03-11T17:21:19.620Z,8.67
2019-03-11T17:23:51.587Z,3.97
2019-03-11T17:26:23.891Z,6.40
2019-03-11T17:28:55.864Z,6.53
2019-03-11T17:31:28.218Z,8.27
2019-03-11T17:34:00.444Z,6.83
2019-03-11T17:36:32.758Z,9.93
2019-03-11T17:39:06.357Z,8.73
2019-03-11T17:41:39.549Z,8.40
2019-03-11T17:44:11.918Z,6.47
2019-03-11T17:46:44.299Z,10.33
2019-03-11T17:49:16.673Z,7.33
2019-03-11T17:51:49.034Z,7.47
2019-03-11T17:54:22.497Z,10.87
2019-03-11T17:56:55.109Z,11.33
2019-03-11T17:59:27.491Z,8.53
2019-03-11T18:01:59.856Z,7.57
2019-03-11T18:04:32.233Z,12.93
2019-03-11T18:07:04.515Z,8.30
2019-03-11T18:09:36.882Z,10.87
2019-03-11T18:12:09.342Z,15.20
2019-03-11T18:14:42.123Z,25.97
2019-03-11T18:17:14.301Z,18.67
2019-03-11T18:19:46.673Z,14.33
2019-03-11T18:22:19.046Z,11.57
2019-03-11T18:24:51.414Z,23.97
2019-03-11T18:27:23.806Z,22.00
2019-03-11T18:29:57.416Z,15.27
2019-03-11T18:32:30.374Z,12.53
2019-03-11T18:35:03.268Z,14.37
2019-03-11T18:37:35.643Z,24.27
2019-03-11T18:40:13.427Z,16.87
2019-03-11T18:42:45.819Z,12.60
2019-03-11T18:45:18.579Z,13.63
2019-03-11T18:47:50.520Z,12.23
2019-03-11T18:50:25.498Z,26.37
2019-03-11T18:52:57.850Z,29.87
2019-03-11T18:55:35.065Z,23.07
2019-03-11T18:58:07.049Z,24.83
2019-03-11T19:00:39.479Z,19.17
2019-03-11T19:03:11.723Z,15.93
2019-03-11T19:05:44.104Z,18.13
2019-03-11T19:08:16.487Z,13.30
2019-03-11T19:10:49.094Z,14.83
2019-03-11T19:13:21.431Z,16.93
2019-03-11T19:15:53.435Z,15.57
2019-03-11T19:18:25.915Z,20.73
2019-03-11T19:20:58.282Z,19.30
2019-03-11T19:23:30.210Z,20.97
2019-03-11T19:26:02.575Z,18.23
2019-03-11T19:28:35.847Z,22.00
2019-03-11T19:31:08.263Z,18.17
2019-03-11T19:33:40.608Z,19.27
2019-03-11T19:36:13.018Z,24.20
2019-03-11T19:38:45.353Z,19.63
2019-03-11T19:41:17.802Z,19.07
2019-03-11T19:43:50.237Z,21.90
2019-03-11T19:46:22.536Z,16.30
2019-03-11T19:48:54.472Z,17.63
2019-03-11T19:51:26.816Z,17.50
2019-03-11T19:53:59.250Z,21.97
2019-03-11T19:56:31.475Z,23.03
2019-03-11T19:59:03.402Z,19.40
2019-03-11T20:01:35.664Z,20.33
2019-03-11T20:04:07.587Z,17.70
2019-03-11T20:06:40.061Z,15.87
2019-03-11T20:09:13.503Z,18.33
2019-03-11T20:11:46.018Z,22.60
2019-03-11T20:14:18.299Z,20.90
2019-03-11T20:16:50.696Z,18.53
2019-03-11T20:19:23.004Z,18.47
2019-03-11T20:21:55.427Z,17.93
2019-03-11T20:24:27.738Z,18.53
2019-03-11T20:27:00.186Z,15.37
2019-03-11T20:29:33.991Z,19.67
2019-03-11T20:32:06.625Z,17.37
2019-03-11T20:34:39.077Z,15.60
2019-03-11T20:37:11.551Z,16.20
2019-03-11T20:39:43.958Z,17.67
2019-03-11T20:42:17.893Z,18.53
2019-03-11T20:44:50.357Z,20.57
2019-03-11T20:47:22.684Z,20.33
2019-03-11T20:49:57.416Z,22.37
2019-03-11T20:52:29.091Z,21.67
2019-03-11T20:55:01.019Z,22.87
2019-03-11T20:57:33.608Z,22.03
2019-03-11T21:00:15.901Z,16.90
2019-03-11T21:02:48.339Z,22.13
2019-03-11T21:05:36.278Z,21.33
2019-03-11T21:08:08.707Z,17.10
2019-03-11T21:10:42.087Z,17.13
2019-03-11T21:13:14.485Z,18.90
2019-03-11T21:15:46.942Z,20.67
2019-03-11T21:18:19.811Z,22.43
2019-03-11T21:21:04.116Z,27.73
2019-03-11T21:23:26.529Z,28.83
2019-03-11T21:25:59.254Z,29.20
2019-03-11T21:28:32.733Z,30.10
2019-03-11T21:31:05.262Z,31.63
2019-03-11T21:33:37.650Z,32.17
2019-03-11T21:36:09.709Z,34.67
2019-03-11T21:38:41.708Z,34.33
2019-03-11T21:41:14.122Z,29.37
2019-03-11T21:43:46.181Z,27.70
2019-03-11T21:46:18.201Z,19.97
2019-03-11T21:48:50.276Z,19.67
2019-03-11T21:51:22.450Z,16.43
2019-03-11T21:53:54.900Z,18.53
2019-03-11T21:56:27.434Z,17.20
2019-03-11T21:58:59.832Z,20.07
2019-03-11T22:01:32.171Z,16.97
2019-03-11T22:04:04.727Z,18.13
2019-03-11T22:06:38.310Z,17.40
2019-03-11T22:09:12.672Z,21.47
2019-03-11T22:11:45.045Z,18.23
2019-03-11T22:14:17.411Z,20.73
2019-03-11T22:16:49.795Z,19.90
2019-03-11T22:19:22.158Z,20.27
2019-03-11T22:21:54.532Z,19.80
2019-03-11T22:24:26.533Z,15.20
2019-03-11T22:26:58.874Z,18.70
2019-03-11T22:29:31.347Z,17.83
2019-03-11T22:32:03.720Z,16.30
2019-03-11T22:34:36.111Z,21.23
2019-03-11T22:37:08.025Z,22.93
2019-03-11T22:39:40.447Z,16.70
2019-03-11T22:42:12.851Z,20.77
2019-03-11T22:44:45.258Z,21.80
2019-03-11T22:47:19.069Z,19.67
2019-03-11T22:49:51.059Z,20.43
2019-03-11T22:52:23.410Z,26.07
2019-03-11T22:54:55.770Z,22.80
2019-03-11T22:57:29.750Z,16.87
2019-03-11T23:00:01.754Z,20.60
2019-03-11T23:02:40.233Z,21.43
2019-03-11T23:05:09.156Z,17.93
2019-03-11T23:07:41.527Z,16.63
2019-03-11T23:10:13.497Z,26.17
2019-03-11T23:12:45.861Z,23.50
2019-03-11T23:15:18.238Z,21.20
2019-03-11T23:17:50.614Z,22.07
2019-03-11T23:20:22.605Z,22.07
2019-03-11T23:22:54.944Z,21.43
2019-03-11T23:25:27.316Z,18.33
2019-03-11T23:27:59.692Z,18.07
2019-03-11T23:30:32.050Z,19.20
2019-03-11T23:33:04.431Z,20.47
2019-03-11T23:35:36.803Z,18.73
2019-03-11T23:38:09.182Z,17.87
2019-03-11T23:40:41.539Z,19.13
2019-03-11T23:43:13.909Z,19.67
2019-03-11T23:45:46.282Z,15.63
2019-03-11T23:48:18.762Z,16.47
2019-03-11T23:50:51.441Z,24.80
2019-03-11T23:53:23.819Z,23.07
2019-03-11T23:55:56.195Z,22.67
2019-03-11T23:58:28.564Z,20.40
